createdAt,value
2019-05-25T00:00:01.212Z,0
2019-05-25T00:08:39.724Z,0
2019-05-25T00:09:20.290Z,0
2019-05-25T00:10:00.868Z,0
2019-05-25T00:10:41.412Z,0
2019-05-25T00:14:04.323Z,0
2019-05-25T00:14:44.837Z,0
2019-05-25T00:15:25.419Z,0
2019-05-25T00:16:06.213Z,0
2019-05-25T00:16:46.785Z,0
2019-05-25T00:17:27.423Z,0
2019-05-25T00:18:07.978Z,0
2019-05-25T00:18:48.589Z,0
2019-05-25T00:19:29.148Z,0
2019-05-25T00:24:53.809Z,0
2019-05-25T00:25:34.369Z,0
2019-05-25T00:26:15.030Z,0
2019-05-25T00:26:55.649Z,0
2019-05-25T00:30:18.521Z,0
2019-05-25T00:30:59.164Z,0
2019-05-25T00:31:39.721Z,0
2019-05-25T00:32:20.279Z,0
2019-05-25T00:33:00.878Z,0
2019-05-25T00:33:41.454Z,0
2019-05-25T00:34:22.046Z,0
2019-05-25T00:35:02.579Z,0
2019-05-25T00:35:43.133Z,0
2019-05-25T00:41:39.392Z,0
2019-05-25T00:42:19.991Z,0
2019-05-25T00:43:00.584Z,0
2019-05-25T00:43:41.155Z,0
2019-05-25T00:47:03.984Z,0
2019-05-25T00:47:44.556Z,0
2019-05-25T00:48:25.152Z,0
2019-05-25T00:50:37.967Z,0
2019-05-25T00:51:18.536Z,0
2019-05-25T00:51:59.104Z,0
2019-05-25T00:52:39.663Z,0
2019-05-25T00:55:23.012Z,0
2019-05-25T00:56:03.619Z,0
2019-05-25T00:56:44.172Z,0
2019-05-25T00:57:24.739Z,0
2019-05-25T00:58:05.334Z,0
2019-05-25T00:58:45.920Z,0
2019-05-25T00:59:26.531Z,0
2019-05-25T01:00:07.090Z,0
2019-05-25T01:06:52.702Z,0
2019-05-25T01:07:33.282Z,0
2019-05-25T01:08:13.832Z,0
2019-05-25T01:08:54.403Z,0
2019-05-25T01:09:34.958Z,0
2019-05-25T01:10:15.513Z,0
2019-05-25T01:10:56.093Z,0
2019-05-25T01:11:36.660Z,0
2019-05-25T01:12:17.223Z,0
2019-05-25T01:19:02.912Z,0
2019-05-25T01:19:43.493Z,0
2019-05-25T01:20:24.086Z,0
2019-05-25T01:21:04.632Z,0
2019-05-25T01:21:45.202Z,0
2019-05-25T01:22:25.771Z,0
2019-05-25T01:23:06.342Z,0
2019-05-25T01:23:46.909Z,0
2019-05-25T01:24:41.251Z,0
2019-05-25T01:30:32.634Z,0
2019-05-25T01:31:13.230Z,0
2019-05-25T01:31:53.789Z,0
2019-05-25T01:32:34.358Z,0
2019-05-25T01:33:14.922Z,0
2019-05-25T01:33:55.481Z,0
2019-05-25T01:34:36.050Z,0
2019-05-25T01:35:16.617Z,0
2019-05-25T01:35:57.178Z,0
2019-05-25T01:42:42.840Z,0
2019-05-25T01:43:23.419Z,0
2019-05-25T01:44:04.006Z,0
2019-05-25T01:44:44.571Z,0
2019-05-25T01:45:25.118Z,0
2019-05-25T01:46:05.676Z,0
2019-05-25T01:46:46.249Z,0
2019-05-25T01:47:26.817Z,0
2019-05-25T01:48:07.376Z,0
2019-05-25T01:54:59.698Z,0
2019-05-25T01:55:33.584Z,0
2019-05-25T01:56:14.131Z,0
2019-05-25T01:56:54.710Z,0
2019-05-25T01:57:35.282Z,0
2019-05-25T01:58:15.854Z,0
2019-05-25T01:58:56.425Z,0
2019-05-25T01:59:36.983Z,0
2019-05-25T02:00:17.605Z,0
2019-05-25T02:06:22.728Z,0
2019-05-25T02:07:03.297Z,0
2019-05-25T02:07:43.859Z,0
2019-05-25T02:08:24.438Z,0
2019-05-25T02:09:05.008Z,0
2019-05-25T02:09:45.561Z,0
2019-05-25T02:10:26.126Z,0
2019-05-25T02:11:06.694Z,0
2019-05-25T02:11:47.270Z,0
2019-05-25T02:18:32.866Z,0
2019-05-25T02:19:13.402Z,0
2019-05-25T02:19:53.974Z,0
2019-05-25T02:20:34.536Z,0
2019-05-25T02:21:15.096Z,0
2019-05-25T02:21:55.676Z,0
2019-05-25T02:22:36.242Z,0
2019-05-25T02:23:16.813Z,0
2019-05-25T02:23:57.388Z,0
2019-05-25T02:30:02.517Z,0
2019-05-25T02:30:43.069Z,0
2019-05-25T02:31:23.625Z,0
2019-05-25T02:32:04.196Z,0
2019-05-25T02:32:44.761Z,0
2019-05-25T02:33:25.328Z,0
2019-05-25T02:34:05.881Z,0
2019-05-25T02:34:46.449Z,0
2019-05-25T02:35:27.017Z,0
2019-05-25T02:36:07.593Z,0
2019-05-25T02:42:12.625Z,0
2019-05-25T02:42:53.179Z,0
2019-05-25T02:43:33.738Z,0
2019-05-25T02:44:14.293Z,0
2019-05-25T02:44:54.876Z,0
2019-05-25T02:45:35.467Z,0
2019-05-25T02:46:15.972Z,0
2019-05-25T02:46:56.544Z,0
2019-05-25T02:47:37.114Z,0
2019-05-25T02:54:22.803Z,0
2019-05-25T02:55:03.367Z,0
2019-05-25T02:55:43.931Z,0
2019-05-25T02:56:24.489Z,0
2019-05-25T02:57:05.073Z,0
2019-05-25T02:57:45.642Z,0
2019-05-25T02:58:26.201Z,0
2019-05-25T02:59:06.763Z,0
2019-05-25T02:59:47.320Z,0
2019-05-25T03:06:32.942Z,5
2019-05-25T03:07:13.505Z,5
2019-05-25T03:07:54.070Z,5
2019-05-25T03:08:34.615Z,5
2019-05-25T03:09:15.171Z,5
2019-05-25T03:09:55.726Z,5
2019-05-25T03:10:36.310Z,5
2019-05-25T03:11:16.877Z,5
2019-05-25T03:11:57.435Z,5
2019-05-25T03:18:02.535Z,5
2019-05-25T03:18:43.096Z,5
2019-05-25T03:19:23.655Z,5
2019-05-25T03:20:04.227Z,5
2019-05-25T03:20:44.785Z,10
2019-05-25T03:21:25.330Z,10
2019-05-25T03:22:05.916Z,10
2019-05-25T03:22:46.452Z,10
2019-05-25T03:23:27.022Z,10
2019-05-25T03:24:07.583Z,10
2019-05-25T03:30:12.718Z,15
2019-05-25T03:30:53.273Z,15
2019-05-25T03:31:33.852Z,15
2019-05-25T03:32:14.409Z,15
2019-05-25T03:32:54.975Z,15
2019-05-25T03:33:35.527Z,15
2019-05-25T03:34:16.121Z,15
2019-05-25T03:34:56.684Z,15
2019-05-25T03:35:37.249Z,15
2019-05-25T03:42:22.940Z,20
2019-05-25T03:43:03.503Z,20
2019-05-25T03:43:44.059Z,20
2019-05-25T03:44:24.675Z,20
2019-05-25T03:45:05.234Z,20
2019-05-25T03:45:45.796Z,20
2019-05-25T03:46:26.389Z,20
2019-05-25T03:47:06.945Z,25
2019-05-25T03:47:47.549Z,25
2019-05-25T03:53:52.664Z,25
2019-05-25T03:54:33.268Z,25
2019-05-25T03:55:13.803Z,30
2019-05-25T03:56:05.121Z,30
2019-05-25T03:56:34.936Z,30
2019-05-25T03:57:15.504Z,30
2019-05-25T03:57:56.058Z,30
2019-05-25T03:58:36.605Z,30
2019-05-25T03:59:17.165Z,30
2019-05-25T04:06:02.913Z,40
2019-05-25T04:06:43.582Z,40
2019-05-25T04:07:24.067Z,40
2019-05-25T04:08:04.624Z,40
2019-05-25T04:08:45.194Z,40
2019-05-25T04:09:25.766Z,45
2019-05-25T04:10:06.380Z,45
2019-05-25T04:10:46.946Z,45
2019-05-25T04:11:27.507Z,50
2019-05-25T04:17:32.594Z,60
2019-05-25T04:18:13.155Z,60
2019-05-25T04:18:53.716Z,60
2019-05-25T04:19:34.273Z,65
2019-05-25T04:20:14.846Z,65
2019-05-25T04:20:55.434Z,70
2019-05-25T04:21:36.013Z,70
2019-05-25T04:22:16.575Z,70
2019-05-25T04:22:57.137Z,70
2019-05-25T04:29:42.897Z,80
2019-05-25T04:30:23.449Z,80
2019-05-25T04:31:04.050Z,80
2019-05-25T04:31:44.605Z,80
2019-05-25T04:32:25.177Z,80
2019-05-25T04:33:05.750Z,80
2019-05-25T04:33:46.331Z,80
2019-05-25T04:34:26.907Z,80
2019-05-25T04:35:07.459Z,80
2019-05-25T04:41:12.567Z,85
2019-05-25T04:41:53.133Z,85
2019-05-25T04:42:33.741Z,85
2019-05-25T04:43:14.301Z,85
2019-05-25T04:43:54.858Z,85
2019-05-25T04:44:35.458Z,85
2019-05-25T04:45:16.022Z,85
2019-05-25T04:45:56.614Z,85
2019-05-25T04:46:37.176Z,85
2019-05-25T04:52:42.511Z,90
2019-05-25T04:53:23.035Z,90
2019-05-25T04:54:03.586Z,90
2019-05-25T04:54:44.138Z,95
2019-05-25T04:55:24.687Z,95
2019-05-25T04:56:05.256Z,95
2019-05-25T04:56:45.817Z,95
2019-05-25T04:57:26.401Z,100
2019-05-25T04:58:06.970Z,95
2019-05-25T04:58:47.541Z,95
2019-05-25T05:04:52.677Z,95
2019-05-25T05:05:33.241Z,95
2019-05-25T05:06:13.801Z,95
2019-05-25T05:06:54.418Z,100
2019-05-25T05:07:34.981Z,100
2019-05-25T05:08:15.558Z,100
2019-05-25T05:08:56.106Z,100
2019-05-25T05:09:36.662Z,105
2019-05-25T05:10:17.217Z,105
2019-05-25T05:17:02.873Z,95
2019-05-25T05:17:43.452Z,95
2019-05-25T05:18:24.024Z,90
2019-05-25T05:19:04.587Z,95
2019-05-25T05:19:45.147Z,95
2019-05-25T05:20:25.710Z,90
2019-05-25T05:21:06.263Z,90
2019-05-25T05:21:46.847Z,100
2019-05-25T05:22:27.418Z,105
2019-05-25T05:28:32.640Z,1690
2019-05-25T05:29:13.197Z,1680
2019-05-25T05:29:53.773Z,1655
2019-05-25T05:30:34.330Z,1605
2019-05-25T05:31:23.007Z,1590
2019-05-25T05:31:55.453Z,1655
2019-05-25T05:32:36.008Z,1760
2019-05-25T05:33:16.570Z,1835
2019-05-25T05:33:57.145Z,1815
2019-05-25T05:40:43.091Z,1300
2019-05-25T05:41:23.656Z,985
2019-05-25T05:42:04.223Z,1145
2019-05-25T05:42:44.790Z,1490
2019-05-25T05:43:25.355Z,1780
2019-05-25T05:44:05.943Z,1905
2019-05-25T05:44:46.522Z,1905
2019-05-25T05:45:27.088Z,1800
2019-05-25T05:52:12.826Z,2035
2019-05-25T05:52:53.416Z,1960
2019-05-25T05:53:34.026Z,1910
2019-05-25T05:54:14.626Z,1935
2019-05-25T05:54:55.199Z,1920
2019-05-25T05:55:35.759Z,1920
2019-05-25T05:56:16.346Z,2000
2019-05-25T05:57:11.007Z,2010
2019-05-25T05:57:37.498Z,1990
2019-05-25T06:03:42.784Z,1895
2019-05-25T06:04:23.353Z,1985
2019-05-25T06:05:03.939Z,2015
2019-05-25T06:05:44.527Z,1965
2019-05-25T06:06:25.093Z,1980
2019-05-25T06:07:05.667Z,2000
2019-05-25T06:07:46.222Z,2000
2019-05-25T06:08:26.800Z,2020
2019-05-25T06:09:07.360Z,1965
2019-05-25T06:15:12.581Z,2050
2019-05-25T06:15:55.845Z,2165
2019-05-25T06:16:33.740Z,2045
2019-05-25T06:17:14.323Z,2020
2019-05-25T06:17:54.913Z,2070
2019-05-25T06:18:35.534Z,1910
2019-05-25T06:19:16.102Z,2145
2019-05-25T06:19:56.674Z,2065
2019-05-25T06:20:37.252Z,1960
2019-05-25T06:27:27.265Z,1960
2019-05-25T06:28:03.771Z,1990
2019-05-25T06:28:44.377Z,2030
2019-05-25T06:29:25.364Z,2085
2019-05-25T06:30:06.051Z,1940
2019-05-25T06:30:46.773Z,335
2019-05-25T06:31:27.449Z,915
2019-05-25T06:37:24.662Z,405
2019-05-25T06:38:05.129Z,250
2019-05-25T06:38:45.749Z,185
2019-05-25T06:39:26.357Z,495
2019-05-25T06:42:49.444Z,2120
2019-05-25T06:43:30.036Z,295
2019-05-25T06:44:10.599Z,2145
2019-05-25T06:44:51.163Z,230
2019-05-25T06:45:31.766Z,300
2019-05-25T06:46:12.346Z,1195
2019-05-25T06:46:52.894Z,330
2019-05-25T06:47:33.515Z,480
2019-05-25T06:48:14.117Z,475
2019-05-25T06:52:19.083Z,280
2019-05-25T06:53:00.011Z,315
2019-05-25T06:53:40.778Z,420
2019-05-25T06:57:20.353Z,170
2019-05-25T06:58:00.931Z,180
2019-05-25T06:58:41.489Z,265
2019-05-25T06:59:22.067Z,1020
2019-05-25T07:02:45.062Z,180
2019-05-25T07:03:25.632Z,155
2019-05-25T07:07:05.063Z,100
2019-05-25T07:07:45.624Z,95
2019-05-25T07:08:26.191Z,105
2019-05-25T07:09:06.758Z,110
2019-05-25T07:12:29.928Z,150
2019-05-25T07:13:10.489Z,170
2019-05-25T07:13:51.126Z,135
2019-05-25T07:14:31.707Z,140
2019-05-25T07:15:13.226Z,145
2019-05-25T07:15:53.977Z,145
2019-05-25T07:16:34.602Z,210
2019-05-25T07:22:39.995Z,155
2019-05-25T07:23:20.563Z,160
2019-05-25T07:24:01.143Z,175
2019-05-25T07:24:41.699Z,270
2019-05-25T07:25:22.289Z,170
2019-05-25T07:26:02.859Z,145
2019-05-25T07:26:43.486Z,120
2019-05-25T07:27:24.606Z,115
2019-05-25T07:33:30.125Z,100
2019-05-25T07:34:10.745Z,550
2019-05-25T07:34:51.290Z,135
2019-05-25T07:35:31.859Z,125
2019-05-25T07:36:12.457Z,110
2019-05-25T07:36:53.017Z,100
2019-05-25T07:37:33.695Z,100
2019-05-25T07:38:14.298Z,110
2019-05-25T07:45:00.170Z,115
2019-05-25T07:45:40.742Z,130
2019-05-25T07:46:21.330Z,150
2019-05-25T07:47:01.951Z,175
2019-05-25T07:47:42.614Z,205
2019-05-25T07:48:23.252Z,185
2019-05-25T07:49:03.820Z,180
2019-05-25T07:49:44.384Z,170
2019-05-25T07:56:30.081Z,160
2019-05-25T07:57:10.651Z,125
2019-05-25T07:57:51.218Z,130
2019-05-25T07:58:31.794Z,130
2019-05-25T07:59:12.371Z,130
2019-05-25T07:59:52.937Z,125
2019-05-25T08:00:33.504Z,110
2019-05-25T08:01:14.073Z,100
2019-05-25T08:01:54.647Z,95
2019-05-25T08:07:59.976Z,85
2019-05-25T08:08:40.494Z,85
2019-05-25T08:09:21.053Z,80
2019-05-25T08:10:01.621Z,75
2019-05-25T08:10:42.190Z,75
2019-05-25T08:11:22.769Z,70
2019-05-25T08:12:03.367Z,70
2019-05-25T08:12:43.954Z,70
2019-05-25T08:13:24.534Z,70
2019-05-25T08:19:29.897Z,70
2019-05-25T08:20:10.484Z,65
2019-05-25T08:20:51.886Z,65
2019-05-25T08:21:32.829Z,65
2019-05-25T08:22:13.514Z,65
2019-05-25T08:22:54.656Z,65
2019-05-25T08:26:59.597Z,75
2019-05-25T08:27:40.178Z,80
2019-05-25T08:28:32.043Z,80
2019-05-25T08:29:01.306Z,90
2019-05-25T08:29:41.864Z,95
2019-05-25T08:30:22.468Z,100
2019-05-25T08:31:03.076Z,105
2019-05-25T08:31:43.738Z,105
2019-05-25T08:32:24.308Z,115
2019-05-25T08:39:10.169Z,70
2019-05-25T08:39:50.705Z,65
2019-05-25T08:40:31.312Z,60
2019-05-25T08:41:11.894Z,60
2019-05-25T08:41:52.455Z,55
2019-05-25T08:42:33.009Z,55
2019-05-25T08:43:13.572Z,50
2019-05-25T08:43:54.124Z,50
2019-05-25T08:50:39.896Z,50
2019-05-25T08:51:20.497Z,50
2019-05-25T08:52:04.038Z,55
2019-05-25T08:52:41.618Z,60
2019-05-25T08:53:37.697Z,65
2019-05-25T08:54:02.751Z,65
2019-05-25T08:54:43.352Z,65
2019-05-25T08:55:23.905Z,65
2019-05-25T08:56:04.505Z,70
2019-05-25T09:02:09.866Z,65
2019-05-25T09:02:50.369Z,65
2019-05-25T09:03:30.941Z,65
2019-05-25T09:04:11.702Z,60
2019-05-25T09:04:52.253Z,60
2019-05-25T09:05:32.842Z,60
2019-05-25T09:06:13.402Z,65
2019-05-25T09:06:53.963Z,70
2019-05-25T09:12:59.982Z,95
2019-05-25T09:13:40.551Z,100
2019-05-25T09:14:21.116Z,105
2019-05-25T09:15:01.712Z,110
2019-05-25T09:15:42.311Z,130
2019-05-25T09:16:22.882Z,150
2019-05-25T09:20:03.483Z,165
2019-05-25T09:20:44.589Z,145
2019-05-25T09:21:25.637Z,130
2019-05-25T09:22:06.807Z,115
2019-05-25T09:22:47.934Z,105
2019-05-25T09:23:29.048Z,100
2019-05-25T09:24:10.216Z,95
2019-05-25T09:24:51.953Z,95
2019-05-25T09:29:28.283Z,85
2019-05-25T09:30:08.847Z,85
2019-05-25T09:30:49.421Z,90
2019-05-25T09:31:29.961Z,90
2019-05-25T09:34:52.923Z,90
2019-05-25T09:35:33.487Z,85
2019-05-25T09:36:14.046Z,85
2019-05-25T09:36:54.597Z,85
2019-05-25T09:37:35.154Z,90
2019-05-25T09:38:15.724Z,95
2019-05-25T09:38:56.306Z,100
2019-05-25T09:39:36.871Z,105
2019-05-25T09:40:17.434Z,105
2019-05-25T09:47:03.210Z,155
2019-05-25T09:47:43.761Z,170
2019-05-25T09:48:24.330Z,185
2019-05-25T09:49:04.893Z,190
2019-05-25T09:49:45.439Z,190
2019-05-25T09:50:26.036Z,190
2019-05-25T09:51:15.138Z,190
2019-05-25T09:51:48.668Z,195
2019-05-25T09:52:27.769Z,190
2019-05-25T09:58:32.876Z,175
2019-05-25T09:59:19.929Z,175
2019-05-25T09:59:54.035Z,175
2019-05-25T10:00:34.596Z,170
2019-05-25T10:01:15.170Z,165
2019-05-25T10:01:55.741Z,160
2019-05-25T10:02:36.323Z,150
2019-05-25T10:03:16.890Z,150
2019-05-25T10:03:57.492Z,165
2019-05-25T10:10:43.227Z,140
2019-05-25T10:11:23.830Z,140
2019-05-25T10:12:04.410Z,140
2019-05-25T10:12:44.970Z,140
2019-05-25T10:13:25.541Z,135
2019-05-25T10:14:06.111Z,130
2019-05-25T10:14:46.679Z,130
2019-05-25T10:15:28.407Z,125
2019-05-25T10:22:12.987Z,165
2019-05-25T10:22:53.553Z,160
2019-05-25T10:23:34.168Z,150
2019-05-25T10:24:14.692Z,140
2019-05-25T10:24:55.260Z,135
2019-05-25T10:25:35.842Z,130
2019-05-25T10:26:16.415Z,120
2019-05-25T10:26:56.979Z,115
2019-05-25T10:27:37.549Z,110
2019-05-25T10:34:23.325Z,95
2019-05-25T10:35:03.859Z,90
2019-05-25T10:35:44.429Z,90
2019-05-25T10:36:25.014Z,90
2019-05-25T10:37:05.751Z,95
2019-05-25T10:37:46.309Z,100
2019-05-25T10:38:26.886Z,105
2019-05-25T10:39:07.465Z,110
2019-05-25T10:45:53.304Z,110
2019-05-25T10:46:33.854Z,110
2019-05-25T10:47:14.411Z,105
2019-05-25T10:47:54.966Z,105
2019-05-25T10:48:35.577Z,105
2019-05-25T10:49:16.146Z,100
2019-05-25T10:49:56.706Z,105
2019-05-25T10:50:37.274Z,105
2019-05-25T10:51:17.918Z,100
2019-05-25T10:57:23.316Z,115
2019-05-25T10:58:03.835Z,125
2019-05-25T10:58:44.402Z,130
2019-05-25T10:59:24.972Z,140
2019-05-25T11:00:05.540Z,145
2019-05-25T11:00:46.175Z,155
2019-05-25T11:01:26.758Z,155
2019-05-25T11:02:07.317Z,155
2019-05-25T11:02:47.895Z,155
2019-05-25T11:08:53.149Z,170
2019-05-25T11:09:33.728Z,170
2019-05-25T11:10:14.324Z,170
2019-05-25T11:10:54.909Z,170
2019-05-25T11:11:35.485Z,160
2019-05-25T11:12:16.052Z,155
2019-05-25T11:12:56.648Z,150
2019-05-25T11:13:37.224Z,145
2019-05-25T11:14:17.790Z,145
2019-05-25T11:20:23.070Z,140
2019-05-25T11:21:03.653Z,140
2019-05-25T11:21:44.226Z,140
2019-05-25T11:22:24.791Z,135
2019-05-25T11:23:05.394Z,130
2019-05-25T11:23:45.982Z,130
2019-05-25T11:24:26.545Z,125
2019-05-25T11:25:07.139Z,125
2019-05-25T11:25:47.724Z,120
2019-05-25T11:31:13.169Z,125
2019-05-25T11:31:58.183Z,130
2019-05-25T11:32:34.352Z,130
2019-05-25T11:33:14.984Z,140
2019-05-25T11:33:55.559Z,140
2019-05-25T11:34:36.097Z,145
2019-05-25T11:35:16.726Z,150
2019-05-25T11:35:57.324Z,150
2019-05-25T11:36:37.896Z,150
2019-05-25T11:42:43.214Z,145
2019-05-25T11:43:23.748Z,135
2019-05-25T11:44:04.418Z,130
2019-05-25T11:44:44.951Z,130
2019-05-25T11:45:25.562Z,125
2019-05-25T11:46:06.127Z,120
2019-05-25T11:46:46.689Z,120
2019-05-25T11:47:27.265Z,115
2019-05-25T11:48:07.844Z,105
2019-05-25T11:54:13.308Z,85
2019-05-25T11:54:53.886Z,85
2019-05-25T11:55:34.480Z,85
2019-05-25T11:56:15.065Z,85
2019-05-25T11:56:55.713Z,85
2019-05-25T11:57:36.506Z,85
2019-05-25T11:58:17.107Z,85
2019-05-25T11:58:57.710Z,85
2019-05-25T12:05:03.035Z,90
2019-05-25T12:05:43.734Z,90
2019-05-25T12:06:24.322Z,90
2019-05-25T12:07:04.929Z,90
2019-05-25T12:07:45.484Z,90
2019-05-25T12:08:26.086Z,90
2019-05-25T12:09:06.661Z,90
2019-05-25T12:09:47.282Z,95
2019-05-25T12:10:27.857Z,100
2019-05-25T12:16:33.047Z,85
2019-05-25T12:17:13.620Z,90
2019-05-25T12:17:54.284Z,90
2019-05-25T12:18:34.850Z,85
2019-05-25T12:19:15.420Z,85
2019-05-25T12:19:56.008Z,90
2019-05-25T12:20:36.580Z,95
2019-05-25T12:21:17.136Z,105
2019-05-25T12:21:57.713Z,105
2019-05-25T12:28:03.310Z,95
2019-05-25T12:28:43.911Z,95
2019-05-25T12:29:24.479Z,95
2019-05-25T12:30:05.092Z,95
2019-05-25T12:30:45.776Z,95
2019-05-25T12:31:26.281Z,95
2019-05-25T12:32:06.846Z,95
2019-05-25T12:32:47.412Z,90
2019-05-25T12:38:43.617Z,80
2019-05-25T12:39:26.553Z,80
2019-05-25T12:40:04.781Z,80
2019-05-25T12:40:53.440Z,85
2019-05-25T12:44:08.460Z,85
2019-05-25T12:44:49.002Z,90
2019-05-25T12:45:29.564Z,90
2019-05-25T12:46:10.135Z,100
2019-05-25T12:46:50.744Z,100
2019-05-25T12:47:31.313Z,105
2019-05-25T12:48:11.877Z,110
2019-05-25T12:48:52.455Z,115
2019-05-25T12:49:49.315Z,115
2019-05-25T12:55:38.348Z,125
2019-05-25T12:56:18.907Z,125
2019-05-25T12:57:02.507Z,125
2019-05-25T12:57:40.038Z,125
2019-05-25T12:58:23.571Z,120
2019-05-25T13:00:33.467Z,105
2019-05-25T13:01:14.015Z,100
2019-05-25T13:01:54.687Z,95
2019-05-25T13:02:35.320Z,95
2019-05-25T13:04:39.087Z,85
2019-05-25T13:05:32.856Z,85
2019-05-25T13:06:00.395Z,85
2019-05-25T13:06:41.152Z,85
2019-05-25T13:07:22.029Z,85
2019-05-25T13:08:02.706Z,90
2019-05-25T13:08:44.072Z,95
2019-05-25T13:14:14.304Z,120
2019-05-25T13:14:50.081Z,125
2019-05-25T13:15:30.767Z,130
2019-05-25T13:16:11.473Z,170
2019-05-25T13:16:52.136Z,130
2019-05-25T13:17:32.613Z,130
2019-05-25T13:18:13.223Z,130
2019-05-25T13:18:54.006Z,125
2019-05-25T13:23:38.920Z,120
2019-05-25T13:24:19.730Z,115
2019-05-25T13:25:00.675Z,115
2019-05-25T13:25:41.401Z,115
2019-05-25T13:26:22.016Z,110
2019-05-25T13:27:02.668Z,110
2019-05-25T13:27:43.421Z,115
2019-05-25T13:33:49.249Z,125
2019-05-25T13:34:29.916Z,125
2019-05-25T13:35:10.540Z,120
2019-05-25T13:35:51.184Z,120
2019-05-25T13:36:31.923Z,120
2019-05-25T13:37:12.634Z,120
2019-05-25T13:37:53.425Z,120
2019-05-25T13:43:59.258Z,120
2019-05-25T13:44:39.949Z,115
2019-05-25T13:45:20.592Z,115
2019-05-25T13:46:01.294Z,115
2019-05-25T13:46:41.883Z,115
2019-05-25T13:47:22.625Z,115
2019-05-25T13:48:03.250Z,115
2019-05-25T13:48:43.924Z,115
2019-05-25T13:54:09.074Z,105
2019-05-25T13:54:49.830Z,105
2019-05-25T13:55:30.409Z,105
2019-05-25T13:56:11.064Z,110
2019-05-25T13:56:51.674Z,110
2019-05-25T13:57:32.393Z,105
2019-05-25T13:58:13.190Z,105
2019-05-25T13:58:53.779Z,100
2019-05-25T14:04:59.291Z,120
2019-05-25T14:05:39.867Z,115
2019-05-25T14:06:20.427Z,115
2019-05-25T14:07:01.075Z,115
2019-05-25T14:07:41.628Z,110
2019-05-25T14:08:22.302Z,105
2019-05-25T14:09:02.885Z,100
2019-05-25T14:09:43.523Z,95
2019-05-25T14:15:48.991Z,100
2019-05-25T14:16:29.584Z,100
2019-05-25T14:17:10.621Z,100
2019-05-25T14:17:51.271Z,100
2019-05-25T14:18:31.980Z,100
2019-05-25T14:19:12.622Z,105
2019-05-25T14:19:53.248Z,115
2019-05-25T14:20:33.804Z,160
2019-05-25T14:26:39.451Z,110
2019-05-25T14:27:20.303Z,110
2019-05-25T14:28:00.883Z,115
2019-05-25T14:28:41.463Z,110
2019-05-25T14:29:23.964Z,110
2019-05-25T14:30:02.610Z,105
2019-05-25T14:30:43.235Z,110
2019-05-25T14:31:23.810Z,110
2019-05-25T14:37:29.149Z,110
2019-05-25T14:38:09.711Z,110
2019-05-25T14:38:50.305Z,120
2019-05-25T14:39:30.885Z,120
2019-05-25T14:40:11.870Z,150
2019-05-25T14:40:52.165Z,185
2019-05-25T14:41:32.706Z,125
2019-05-25T14:42:13.291Z,115
2019-05-25T14:42:53.862Z,120
2019-05-25T14:48:59.181Z,95
2019-05-25T14:49:39.748Z,100
2019-05-25T14:50:20.410Z,100
2019-05-25T14:51:00.922Z,100
2019-05-25T14:51:41.526Z,100
2019-05-25T14:52:22.095Z,100
2019-05-25T14:53:02.667Z,95
2019-05-25T14:53:43.291Z,95
2019-05-25T14:54:23.830Z,95
2019-05-25T15:00:29.349Z,95
2019-05-25T15:01:09.973Z,95
2019-05-25T15:02:01.761Z,90
2019-05-25T15:02:31.172Z,90
2019-05-25T15:03:11.865Z,90
2019-05-25T15:03:52.455Z,95
2019-05-25T15:04:33.114Z,90
2019-05-25T15:05:13.714Z,90
2019-05-25T15:11:19.284Z,95
2019-05-25T15:11:59.963Z,105
2019-05-25T15:12:40.543Z,110
2019-05-25T15:13:21.162Z,105
2019-05-25T15:14:01.715Z,105
2019-05-25T15:14:42.268Z,105
2019-05-25T15:15:22.860Z,110
2019-05-25T15:16:03.513Z,135
2019-05-25T15:22:09.226Z,85
2019-05-25T15:22:49.905Z,85
2019-05-25T15:23:30.475Z,85
2019-05-25T15:24:11.360Z,85
2019-05-25T15:24:51.919Z,90
2019-05-25T15:25:32.574Z,100
2019-05-25T15:26:13.271Z,135
2019-05-25T15:26:54.017Z,105
2019-05-25T15:32:59.451Z,160
2019-05-25T15:33:40.179Z,165
2019-05-25T15:34:20.675Z,100
2019-05-25T15:35:01.319Z,90
2019-05-25T15:35:41.946Z,85
2019-05-25T15:36:22.498Z,95
2019-05-25T15:37:03.072Z,155
2019-05-25T15:37:43.661Z,85
2019-05-25T15:43:49.418Z,65
2019-05-25T15:44:30.036Z,65
2019-05-25T15:45:10.602Z,65
2019-05-25T15:45:51.190Z,65
2019-05-25T15:46:31.781Z,65
2019-05-25T15:47:12.395Z,65
2019-05-25T15:47:52.969Z,65
2019-05-25T15:48:33.536Z,60
2019-05-25T15:54:38.993Z,45
2019-05-25T15:55:19.576Z,45
2019-05-25T15:56:00.148Z,45
2019-05-25T15:56:40.713Z,50
2019-05-25T15:57:21.277Z,50
2019-05-25T15:58:01.841Z,55
2019-05-25T15:58:42.402Z,55
2019-05-25T15:59:23.730Z,55
2019-05-25T16:00:03.541Z,55
2019-05-25T16:06:49.317Z,70
2019-05-25T16:07:29.875Z,65
2019-05-25T16:08:10.455Z,65
2019-05-25T16:08:51.036Z,60
2019-05-25T16:09:31.596Z,55
2019-05-25T16:10:12.158Z,55
2019-05-25T16:10:52.711Z,55
2019-05-25T16:11:33.344Z,50
2019-05-25T16:12:13.954Z,50
2019-05-25T16:18:19.130Z,40
2019-05-25T16:18:59.707Z,35
2019-05-25T16:19:40.277Z,35
2019-05-25T16:20:20.842Z,35
2019-05-25T16:21:01.432Z,30
2019-05-25T16:21:41.980Z,30
2019-05-25T16:22:22.534Z,30
2019-05-25T16:23:03.109Z,30
2019-05-25T16:23:43.677Z,30
2019-05-25T16:29:48.918Z,30
2019-05-25T16:30:31.477Z,30
2019-05-25T16:31:10.058Z,30
2019-05-25T16:31:50.621Z,30
2019-05-25T16:32:31.211Z,30
2019-05-25T16:33:13.892Z,30
2019-05-25T16:33:52.404Z,25
2019-05-25T16:34:33.039Z,25
2019-05-25T16:35:13.567Z,25
2019-05-25T16:41:59.325Z,25
2019-05-25T16:42:39.915Z,25
2019-05-25T16:43:20.493Z,25
2019-05-25T16:44:01.058Z,25
2019-05-25T16:44:41.627Z,25
2019-05-25T16:45:22.215Z,25
2019-05-25T16:46:02.762Z,30
2019-05-25T16:46:43.327Z,25
2019-05-25T16:47:23.902Z,25
2019-05-25T16:53:29.041Z,35
2019-05-25T16:54:09.628Z,35
2019-05-25T16:54:50.199Z,35
2019-05-25T16:55:30.799Z,35
2019-05-25T16:56:11.369Z,35
2019-05-25T16:56:51.960Z,35
2019-05-25T16:57:32.531Z,35
2019-05-25T16:58:13.141Z,40
2019-05-25T16:58:53.690Z,40
2019-05-25T17:04:59.174Z,35
2019-05-25T17:05:39.756Z,35
2019-05-25T17:06:20.325Z,35
2019-05-25T17:07:00.904Z,35
2019-05-25T17:07:41.506Z,40
2019-05-25T17:08:22.059Z,35
2019-05-25T17:09:02.639Z,35
2019-05-25T17:09:43.228Z,35
2019-05-25T17:10:23.813Z,35
2019-05-25T17:16:29.001Z,35
2019-05-25T17:17:09.587Z,35
2019-05-25T17:17:50.133Z,35
2019-05-25T17:18:30.728Z,35
2019-05-25T17:19:11.288Z,35
2019-05-25T17:19:51.930Z,35
2019-05-25T17:20:32.493Z,35
2019-05-25T17:21:13.067Z,35
2019-05-25T17:21:53.687Z,35
2019-05-25T17:28:39.477Z,30
2019-05-25T17:29:20.058Z,30
2019-05-25T17:30:00.634Z,30
2019-05-25T17:30:41.274Z,30
2019-05-25T17:31:21.866Z,30
2019-05-25T17:32:02.441Z,30
2019-05-25T17:32:43.031Z,30
2019-05-25T17:33:23.595Z,35
2019-05-25T17:40:09.462Z,25
2019-05-25T17:40:50.184Z,25
2019-05-25T17:41:30.932Z,25
2019-05-25T17:42:11.498Z,25
2019-05-25T17:42:52.062Z,25
2019-05-25T17:43:32.667Z,25
2019-05-25T17:44:13.254Z,25
2019-05-25T17:44:53.873Z,25
2019-05-25T17:50:59.354Z,25
2019-05-25T17:51:40.018Z,20
2019-05-25T17:52:22.823Z,20
2019-05-25T17:53:01.186Z,20
2019-05-25T17:53:41.771Z,20
2019-05-25T17:54:22.338Z,20
2019-05-25T17:55:02.925Z,20
2019-05-25T17:55:43.485Z,20
2019-05-25T18:02:29.491Z,20
2019-05-25T18:03:10.062Z,20
2019-05-25T18:04:05.362Z,20
2019-05-25T18:07:30.019Z,15
2019-05-25T18:08:10.638Z,15
2019-05-25T18:08:51.297Z,15
2019-05-25T18:09:31.981Z,15
2019-05-25T18:12:54.950Z,15
2019-05-25T18:13:35.497Z,15
2019-05-25T18:14:17.194Z,15
2019-05-25T18:14:56.863Z,15
2019-05-25T18:15:37.424Z,15
2019-05-25T18:16:18.068Z,15
2019-05-25T18:16:58.661Z,15
2019-05-25T18:17:39.337Z,15
2019-05-25T18:23:44.780Z,10
2019-05-25T18:24:25.474Z,10
2019-05-25T18:25:06.072Z,10
2019-05-25T18:25:46.704Z,10
2019-05-25T18:26:27.285Z,10
2019-05-25T18:27:07.928Z,10
2019-05-25T18:27:48.771Z,10
2019-05-25T18:28:29.367Z,10
2019-05-25T18:33:04.491Z,10
2019-05-25T18:33:45.111Z,10
2019-05-25T18:34:25.683Z,10
2019-05-25T18:35:06.273Z,10
2019-05-25T18:38:29.247Z,10
2019-05-25T18:39:09.841Z,10
2019-05-25T18:39:50.413Z,10
2019-05-25T18:40:30.993Z,10